Time;durP1;ratioP1;P1;durP2;ratioP2;P2;SDS_P1;SDS_P2;PMS_P1;PMS_P2;Temp;Humidity;BMP_temperature;BMP_pressure;BME280_temperature;BME280_humidity;BME280_pressure;Samples;Min_cycle;Max_cycle;Signal;HPM_P1;HPM_P2
2022/01/10 00:01:54;;;;;;;92.65;42.33;;;;;;;-4.71;84.57;100695.84;5066235;28;20390;-54
2022/01/10 00:04:21;;;;;;;90.32;39.42;;;;;;;-4.71;84.59;100700.88;5065578;28;20040;-54
2022/01/10 00:06:49;;;;;;;94.03;39.63;;;;;;;-4.69;84.93;100699.31;5066397;28;20056;-54
2022/01/10 00:09:16;;;;;;;91.10;41.33;;;;;;;-4.65;84.87;100700.38;5065493;28;20125;-55
2022/01/10 00:11:43;;;;;;;86.75;38.65;;;;;;;-4.64;85.19;100695.38;5070680;28;20063;-55
2022/01/10 00:14:11;;;;;;;86.00;37.63;;;;;;;-4.61;85.78;100705.66;5069469;28;20067;-56
2022/01/10 00:16:38;;;;;;;89.90;39.63;;;;;;;-4.59;84.99;100716.72;5070392;28;20049;-53
2022/01/10 00:19:05;;;;;;;84.43;37.15;;;;;;;-4.59;84.09;100721.78;5068125;28;20045;-54
2022/01/10 00:21:33;;;;;;;85.35;38.17;;;;;;;-4.61;83.79;100722.50;5069512;28;20060;-56
2022/01/10 00:24:00;;;;;;;89.55;39.22;;;;;;;-4.62;83.55;100724.16;5068510;28;20052;-56
2022/01/10 00:26:27;;;;;;;84.43;38.60;;;;;;;-4.63;83.52;100724.94;5068923;28;20075;-55
2022/01/10 00:28:54;;;;;;;87.40;39.30;;;;;;;-4.63;83.93;100730.00;5068218;28;20059;-54
2022/01/10 00:31:23;;;;;;;88.88;40.17;;;;;;;-4.63;84.21;100724.94;5070770;28;20044;-55
2022/01/10 00:33:50;;;;;;;83.90;38.63;;;;;;;-4.60;84.56;100737.75;5066879;28;20052;-55
2022/01/10 00:36:17;;;;;;;84.15;37.40;;;;;;;-4.59;84.39;100738.63;5067977;28;20048;-55
2022/01/10 00:38:44;;;;;;;82.07;36.53;;;;;;;-4.58;84.17;100747.97;5069485;28;20493;-52
2022/01/10 00:41:11;;;;;;;81.40;34.80;;;;;;;-4.59;83.74;100752.16;5068794;28;20052;-55
2022/01/10 00:43:45;;;;;;;82.47;36.58;;;;;;;-4.56;83.17;100757.38;5069542;28;20059;-55
2022/01/10 00:46:12;;;;;;;81.05;35.42;;;;;;;-4.60;83.03;100763.06;5068576;28;20118;-52
2022/01/10 00:48:41;;;;;;;81.55;34.70;;;;;;;-4.60;82.50;100770.66;5066667;28;20044;-52
2022/01/10 00:51:08;;;;;;;82.93;37.10;;;;;;;-4.60;82.48;100775.69;5068787;28;20052;-52
2022/01/10 00:53:36;;;;;;;89.57;38.85;;;;;;;-4.61;82.12;100784.09;5070534;28;20048;-54
2022/01/10 00:56:03;;;;;;;92.20;38.72;;;;;;;-4.64;82.05;100786.44;5079850;28;20053;-53
2022/01/10 00:58:30;;;;;;;90.32;40.35;;;;;;;-4.66;81.99;100785.50;5066697;28;20048;-54
2022/01/10 01:00:57;;;;;;;95.13;41.50;;;;;;;-4.69;82.30;100790.38;5068068;28;20060;-56
2022/01/10 01:03:25;;;;;;;92.25;39.58;;;;;;;-4.72;82.22;100794.38;5069144;28;20387;-54
2022/01/10 01:05:53;;;;;;;86.72;38.78;;;;;;;-4.75;82.11;100795.09;5069837;28;20063;-55
2022/01/10 01:08:20;;;;;;;77.55;36.08;;;;;;;-4.77;82.63;100801.72;5069043;28;20052;-52
2022/01/10 01:13:38;;;;;;;85.78;37.08;;;;;;;-4.76;83.15;100813.59;5062633;28;20406;-51
2022/01/10 01:19:29;;;;;;;85.32;37.47;;;;;;;-4.83;81.89;100819.97;5059101;28;20408;-53
2022/01/10 01:24:41;;;;;;;83.57;36.93;;;;;;;-4.87;81.66;100830.72;5068745;28;20056;-52
2022/01/10 01:27:08;;;;;;;80.60;36.20;;;;;;;-4.89;81.62;100832.28;5069241;28;20486;-55
2022/01/10 01:29:36;;;;;;;87.07;37.50;;;;;;;-4.86;81.74;100839.16;5068334;28;20044;-55
2022/01/10 01:32:04;;;;;;;81.70;38.22;;;;;;;-4.87;81.76;100850.94;5068949;28;20421;-55
2022/01/10 01:34:31;;;;;;;73.88;33.33;;;;;;;-4.89;82.24;100851.66;5068130;28;20127;-54
2022/01/10 01:37:00;;;;;;;73.40;35.33;;;;;;;-4.91;82.45;100848.16;5067604;28;20045;-54
2022/01/10 01:39:30;;;;;;;81.95;35.38;;;;;;;-4.92;82.22;100854.00;5060500;28;20219;-56
2022/01/10 01:42:03;;;;;;;81.72;37.67;;;;;;;-4.96;82.07;100854.63;5058868;28;21983;-56
2022/01/10 01:44:31;;;;;;;87.63;37.83;;;;;;;-4.93;82.02;100854.78;5065405;28;20048;-54
2022/01/10 01:46:58;;;;;;;94.97;40.28;;;;;;;-4.93;82.01;100869.97;5058077;28;20620;-56
2022/01/10 01:49:25;;;;;;;88.03;41.45;;;;;;;-4.94;81.96;100858.97;5057418;28;20048;-54
2022/01/10 01:51:52;;;;;;;83.22;36.20;;;;;;;-4.97;81.52;100873.09;5059613;28;20044;-55
2022/01/10 01:54:21;;;;;;;92.57;38.13;;;;;;;-5.03;81.16;100877.81;5057802;28;20059;-53
2022/01/10 01:56:49;;;;;;;85.95;38.30;;;;;;;-5.12;81.25;100878.19;5059757;28;20048;-54
2022/01/10 01:59:16;;;;;;;96.68;38.88;;;;;;;-5.20;81.19;100875.22;5058509;28;20052;-56
2022/01/10 02:01:44;;;;;;;136.95;56.70;;;;;;;-5.20;82.04;100880.28;5062981;28;20389;-53
2022/01/10 02:04:11;;;;;;;138.23;56.33;;;;;;;-5.19;82.45;100876.97;5059615;28;20931;-55
2022/01/10 02:06:38;;;;;;;123.47;52.58;;;;;;;-5.17;82.74;100879.59;5058169;28;20056;-57
2022/01/10 02:09:05;;;;;;;120.07;49.08;;;;;;;-5.15;83.30;100886.47;5058058;28;20427;-56
2022/01/10 02:11:34;;;;;;;96.32;40.53;;;;;;;-5.14;83.30;100890.72;5056349;28;20052;-54
2022/01/10 02:14:04;;;;;;;112.10;49.75;;;;;;;-5.18;83.67;100893.88;5059904;28;20062;-56
2022/01/10 02:16:41;;;;;;;175.63;70.20;;;;;;;-5.21;84.41;100893.66;5062890;28;20560;-55
2022/01/10 02:19:09;;;;;;;184.55;74.53;;;;;;;-5.18;85.12;100903.97;5058952;28;20491;-54
2022/01/10 02:21:38;;;;;;;107.63;45.72;;;;;;;-5.17;84.41;100909.91;5058747;28;20046;-56
2022/01/10 02:24:06;;;;;;;111.90;48.13;;;;;;;-5.24;83.57;100916.25;5059608;28;20490;-55
2022/01/10 02:26:34;;;;;;;93.35;38.97;;;;;;;-5.25;83.15;100919.56;5064955;28;20497;-51
2022/01/10 02:29:01;;;;;;;87.85;38.55;;;;;;;-5.24;83.23;100913.72;5067088;28;20135;-53
2022/01/10 02:31:28;;;;;;;89.32;40.13;;;;;;;-5.23;83.33;100915.47;5067368;28;20052;-56
2022/01/10 02:33:57;;;;;;;94.07;39.20;;;;;;;-5.20;83.27;100920.72;5062776;28;20052;-52
2022/01/10 02:36:26;;;;;;;89.90;38.50;;;;;;;-5.20;83.20;100920.72;5063985;28;20056;-53
2022/01/10 02:38:56;;;;;;;100.53;41.75;;;;;;;-5.23;82.84;100930.63;5062062;28;20072;-55
2022/01/10 02:41:26;;;;;;;112.68;47.53;;;;;;;-5.24;83.27;100933.06;5056800;28;20051;-53
2022/01/10 02:43:54;;;;;;;137.10;57.40;;;;;;;-5.18;84.57;100934.31;5061392;28;20068;-55
2022/01/10 02:46:22;;;;;;;131.50;58.58;;;;;;;-5.18;83.92;100944.41;5057654;28;20063;-52
2022/01/10 02:48:49;;;;;;;107.97;50.17;;;;;;;-5.19;83.24;100942.69;5058004;28;20068;-53
2022/01/10 02:51:16;;;;;;;84.55;38.72;;;;;;;-5.19;83.38;100946.88;5056915;28;20079;-55
2022/01/10 02:53:44;;;;;;;81.65;35.67;;;;;;;-5.20;82.89;100946.00;5055537;28;20052;-55
2022/01/10 02:56:13;;;;;;;83.75;34.60;;;;;;;-5.26;82.84;100950.66;5056551;28;20056;-54
2022/01/10 02:58:40;;;;;;;81.47;35.40;;;;;;;-5.27;82.89;100956.50;5059665;28;20493;-55
2022/01/10 03:01:07;;;;;;;159.02;66.70;;;;;;;-5.25;83.85;100971.75;5057404;28;20052;-55
2022/01/10 03:03:34;;;;;;;77.15;35.88;;;;;;;-5.26;83.91;100978.47;5058041;28;20053;-54
2022/01/10 03:06:02;;;;;;;75.00;35.85;;;;;;;-5.29;83.54;100980.81;5065308;28;20044;-53
2022/01/10 03:08:31;;;;;;;74.53;33.30;;;;;;;-5.29;83.59;100985.00;5060999;28;20045;-53
2022/01/10 03:10:58;;;;;;;78.63;34.63;;;;;;;-5.32;83.59;100995.78;5057771;28;20056;-56
2022/01/10 03:13:27;;;;;;;105.57;44.92;;;;;;;-5.38;82.60;101000.47;5062638;28;20063;-53
2022/01/10 03:15:54;;;;;;;87.78;39.00;;;;;;;-5.40;83.02;101012.16;5055042;28;20044;-55
2022/01/10 03:18:21;;;;;;;97.20;41.92;;;;;;;-5.40;82.53;101010.50;5063350;28;20139;-56
2022/01/10 03:20:48;;;;;;;93.78;40.97;;;;;;;-5.40;82.85;101012.16;5060358;28;20515;-55
2022/01/10 03:23:15;;;;;;;92.28;40.70;;;;;;;-5.43;82.28;101022.94;5062105;28;21978;-53
2022/01/10 03:25:43;;;;;;;101.57;43.03;;;;;;;-5.39;82.57;101024.00;5059178;28;20508;-53
2022/01/10 03:28:13;;;;;;;102.32;42.08;;;;;;;-5.36;82.70;101034.28;5060793;28;20052;-52
2022/01/10 03:30:42;;;;;;;94.68;40.35;;;;;;;-5.35;81.81;101041.09;5056752;28;20053;-55
2022/01/10 03:33:09;;;;;;;85.85;37.40;;;;;;;-5.34;82.49;101042.84;5057896;28;20064;-55
2022/01/10 03:35:37;;;;;;;87.22;38.50;;;;;;;-5.34;82.37;101052.06;5058957;28;20161;-56
2022/01/10 03:38:05;;;;;;;89.32;39.42;;;;;;;-5.34;82.76;101055.47;5060842;28;20489;-56
2022/01/10 03:40:32;;;;;;;84.05;38.58;;;;;;;-5.36;83.06;101058.69;5059559;28;21795;-55
2022/01/10 03:42:59;;;;;;;87.88;38.72;;;;;;;-5.35;83.24;101061.31;5058957;28;20615;-56
2022/01/10 03:45:26;;;;;;;96.15;39.65;;;;;;;-5.32;83.46;101066.53;5059171;28;20468;-55
2022/01/10 03:47:55;;;;;;;80.13;38.10;;;;;;;-5.34;83.14;101073.16;5059551;28;20056;-56
2022/01/10 03:50:22;;;;;;;84.13;37.03;;;;;;;-5.35;83.66;101073.94;5060280;28;20413;-56
2022/01/10 03:52:49;;;;;;;75.78;36.65;;;;;;;-5.34;84.09;101078.22;5064698;28;20052;-56
2022/01/10 03:55:16;;;;;;;87.30;39.63;;;;;;;-5.35;84.45;101094.16;5067827;28;20048;-56
2022/01/10 03:57:43;;;;;;;80.43;35.67;;;;;;;-5.37;84.36;101098.25;5065981;28;20053;-53
2022/01/10 04:00:12;;;;;;;84.63;36.75;;;;;;;-5.34;83.84;101108.53;5059911;28;20662;-54
2022/01/10 04:02:42;;;;;;;74.80;33.50;;;;;;;-5.31;83.42;101120.47;5060269;28;20052;-55
2022/01/10 04:05:11;;;;;;;82.65;34.78;;;;;;;-5.32;83.00;101111.16;5062443;28;20052;-55
2022/01/10 04:07:38;;;;;;;75.55;34.95;;;;;;;-5.34;82.41;101102.59;5067792;28;20378;-56
2022/01/10 04:10:06;;;;;;;73.25;33.75;;;;;;;-5.39;81.87;101114.97;5065255;28;20059;-54
2022/01/10 04:12:33;;;;;;;74.38;33.83;;;;;;;-5.40;82.09;101120.78;5060242;28;20047;-54
2022/01/10 04:15:00;;;;;;;79.18;35.92;;;;;;;-5.41;82.30;101131.69;5061634;28;20057;-55
2022/01/10 04:17:28;;;;;;;82.65;36.25;;;;;;;-5.39;82.26;101140.22;5061204;28;20075;-56
2022/01/10 04:19:55;;;;;;;78.93;38.22;;;;;;;-5.39;82.63;101135.19;5063052;28;20044;-55
2022/01/10 04:22:23;;;;;;;80.05;35.72;;;;;;;-5.36;82.91;101137.00;5064092;28;20063;-56
2022/01/10 04:24:50;;;;;;;80.95;35.53;;;;;;;-5.37;83.42;101137.78;5058869;28;20067;-55
2022/01/10 04:27:17;;;;;;;84.20;36.85;;;;;;;-5.43;82.84;101143.34;5059034;28;20444;-55
2022/01/10 04:29:44;;;;;;;79.47;35.22;;;;;;;-5.39;83.27;101147.81;5059409;28;21246;-55
2022/01/10 04:32:12;;;;;;;79.72;34.95;;;;;;;-5.37;82.89;101151.31;5063572;28;20059;-56
2022/01/10 04:34:39;;;;;;;68.28;33.72;;;;;;;-5.40;82.36;101163.75;5066329;28;20147;-56
2022/01/10 04:37:07;;;;;;;81.95;32.47;;;;;;;-5.44;82.85;101171.91;5066427;28;20051;-55
2022/01/10 04:39:36;;;;;;;98.93;38.15;;;;;;;-5.47;83.24;101171.72;5064118;28;20048;-56
2022/01/10 04:42:04;;;;;;;84.63;36.40;;;;;;;-5.49;83.08;101170.75;5069077;28;20052;-56
2022/01/10 04:44:31;;;;;;;78.72;36.95;;;;;;;-5.50;82.81;101182.50;5059845;28;20045;-55
2022/01/10 04:46:58;;;;;;;92.28;40.38;;;;;;;-5.55;82.47;101183.00;5061195;28;20052;-56
2022/01/10 04:49:26;;;;;;;78.20;36.63;;;;;;;-5.53;82.10;101189.91;5065199;28;20060;-55
2022/01/10 04:51:54;;;;;;;79.53;37.05;;;;;;;-5.54;81.79;101195.72;5065346;28;20874;-54
2022/01/10 04:54:22;;;;;;;89.15;37.13;;;;;;;-5.54;81.89;101210.88;5062513;28;20052;-54
2022/01/10 04:56:50;;;;;;;89.68;38.33;;;;;;;-5.57;82.08;101209.81;5065879;28;20056;-54
2022/01/10 04:59:18;;;;;;;78.15;35.63;;;;;;;-5.56;82.00;101219.16;5062813;28;20126;-55
2022/01/10 05:01:45;;;;;;;77.32;37.15;;;;;;;-5.55;82.35;101223.44;5060156;28;20053;-55
2022/01/10 05:04:12;;;;;;;84.93;38.70;;;;;;;-5.54;81.90;101221.00;5062181;28;20071;-53
2022/01/10 05:06:39;;;;;;;85.65;37.20;;;;;;;-5.54;82.06;101230.22;5058622;28;20052;-55
2022/01/10 05:09:06;;;;;;;87.30;38.55;;;;;;;-5.55;82.58;101228.47;5059846;28;21832;-56
2022/01/10 05:11:36;;;;;;;92.38;40.15;;;;;;;-5.58;82.65;101235.88;5065463;28;20392;-56
2022/01/10 05:14:05;;;;;;;84.57;37.33;;;;;;;-5.59;82.61;101236.63;5057372;28;20067;-56
2022/01/10 05:16:32;;;;;;;80.20;34.30;;;;;;;-5.60;83.12;101245.00;5059454;28;20044;-55
2022/01/10 05:18:59;;;;;;;70.88;35.58;;;;;;;-5.61;83.36;101248.28;5059963;28;20057;-55
2022/01/10 05:21:26;;;;;;;78.68;35.33;;;;;;;-5.61;83.33;101249.16;5064118;28;20040;-54
2022/01/10 05:23:54;;;;;;;65.85;31.08;;;;;;;-5.62;84.51;101261.69;5064291;28;20060;-54
2022/01/10 05:26:21;;;;;;;79.40;33.22;;;;;;;-5.64;85.09;101270.84;5067288;28;20048;-55
2022/01/10 05:28:48;;;;;;;61.97;27.92;;;;;;;-5.62;86.49;101274.34;5052633;28;20051;-55
2022/01/10 05:31:17;;;;;;;63.25;28.75;;;;;;;-5.59;87.01;101277.06;5058350;28;20048;-54
2022/01/10 05:33:44;;;;;;;57.97;28.63;;;;;;;-5.57;87.53;101280.56;5065976;28;20105;-51
2022/01/10 05:36:11;;;;;;;53.70;26.38;;;;;;;-5.53;87.88;101282.50;5063552;28;20060;-53
2022/01/10 05:38:38;;;;;;;64.00;30.15;;;;;;;-5.51;87.76;101289.41;5059469;28;20056;-54
2022/01/10 05:41:05;;;;;;;65.18;30.38;;;;;;;-5.45;88.38;101291.44;5058022;28;20060;-53
2022/01/10 05:43:32;;;;;;;66.75;30.40;;;;;;;-5.42;88.39;101279.88;5060015;28;20056;-51
2022/01/10 05:45:59;;;;;;;65.75;29.02;;;;;;;-5.34;88.66;101290.47;5061456;28;20056;-54
2022/01/10 05:48:30;;;;;;;65.55;29.70;;;;;;;-5.29;88.66;101304.28;5059721;28;20575;-55
2022/01/10 05:50:58;;;;;;;64.57;28.73;;;;;;;-5.24;88.15;101307.97;5054531;28;20065;-55
2022/01/10 05:53:25;;;;;;;63.67;30.00;;;;;;;-5.20;87.50;101315.00;5057317;28;20159;-55
2022/01/10 05:55:52;;;;;;;60.05;28.67;;;;;;;-5.13;86.86;101322.19;5062858;28;20053;-55
2022/01/10 05:58:20;;;;;;;61.65;29.00;;;;;;;-5.07;86.15;101320.84;5066605;28;20044;-54
2022/01/10 06:00:47;;;;;;;57.90;27.38;;;;;;;-5.02;86.31;101319.47;5057890;28;20056;-55
2022/01/10 06:03:14;;;;;;;60.78;27.67;;;;;;;-5.01;86.22;101327.16;5058948;28;20059;-54
2022/01/10 06:05:43;;;;;;;63.13;31.55;;;;;;;-5.01;86.18;101331.31;5061261;28;20584;-54
2022/01/10 06:08:11;;;;;;;65.30;30.38;;;;;;;-5.01;85.97;101326.28;5064284;28;20056;-55
2022/01/10 06:10:39;;;;;;;67.53;29.25;;;;;;;-4.97;85.73;101338.31;5057110;28;20149;-55
2022/01/10 06:13:06;;;;;;;62.60;29.73;;;;;;;-4.92;86.22;101336.97;5057547;28;20056;-52
2022/01/10 06:15:34;;;;;;;68.65;30.17;;;;;;;-4.90;86.45;101341.34;5057077;28;20425;-54
2022/01/10 06:18:01;;;;;;;61.53;29.00;;;;;;;-4.85;86.27;101346.69;5057691;28;20069;-53
2022/01/10 06:20:29;;;;;;;65.22;30.73;;;;;;;-4.82;85.84;101355.34;5058677;28;20049;-54
2022/01/10 06:22:57;;;;;;;57.88;27.25;;;;;;;-4.80;85.88;101368.06;5061246;28;20478;-55
2022/01/10 06:25:26;;;;;;;66.05;29.40;;;;;;;-4.79;85.42;101369.81;5063875;28;20434;-53
2022/01/10 06:27:54;;;;;;;54.80;27.35;;;;;;;-4.77;85.06;101385.97;5063967;28;20049;-55
2022/01/10 06:30:21;;;;;;;61.28;28.02;;;;;;;-4.86;84.59;101393.84;5061626;28;20052;-54
2022/01/10 06:32:49;;;;;;;65.47;27.70;;;;;;;-4.92;84.58;101407.75;5058093;28;20049;-55
2022/01/10 06:35:16;;;;;;;69.10;30.95;;;;;;;-4.97;84.08;101414.19;5055575;28;20052;-55
2022/01/10 06:37:43;;;;;;;59.85;30.00;;;;;;;-5.00;83.52;101419.03;5057149;28;20064;-55
2022/01/10 06:40:13;;;;;;;66.22;31.08;;;;;;;-4.97;83.49;101429.34;5061787;28;20437;-52
2022/01/10 06:42:41;;;;;;;76.15;36.22;;;;;;;-4.99;83.06;101416.63;5064383;28;20044;-54
2022/01/10 06:45:09;;;;;;;66.80;30.88;;;;;;;-5.04;82.81;101423.03;5057303;28;20386;-55
2022/01/10 06:47:36;;;;;;;77.22;32.30;;;;;;;-5.08;83.08;101431.19;5072893;28;20055;-52
2022/01/10 06:50:05;;;;;;;77.07;36.42;;;;;;;-5.09;83.37;101435.38;5057878;28;20486;-54
2022/01/10 06:52:32;;;;;;;94.90;39.45;;;;;;;-5.07;83.18;101440.53;5054515;28;20094;-54
2022/01/10 06:54:59;;;;;;;79.47;35.85;;;;;;;-5.06;83.38;101438.88;5060547;28;21025;-55
2022/01/10 06:57:28;;;;;;;76.97;36.55;;;;;;;-5.06;82.94;101441.41;5061413;28;20052;-53
2022/01/10 06:59:56;;;;;;;109.10;44.53;;;;;;;-5.11;83.13;101452.09;5058332;28;20537;-54
2022/01/10 07:02:23;;;;;;;100.63;46.08;;;;;;;-5.10;83.18;101458.91;5060150;28;20437;-55
2022/01/10 07:04:50;;;;;;;116.78;49.38;;;;;;;-5.13;83.35;101453.66;5056435;28;20056;-54
2022/01/10 07:07:17;;;;;;;114.63;48.33;;;;;;;-5.12;83.35;101464.63;5060985;28;20062;-55
2022/01/10 07:09:45;;;;;;;94.35;43.70;;;;;;;-5.14;84.02;101467.06;5061787;28;20390;-52
2022/01/10 07:12:12;;;;;;;101.15;43.53;;;;;;;-5.13;84.27;101468.81;5065810;28;20056;-55
2022/01/10 07:14:41;;;;;;;98.90;43.70;;;;;;;-5.12;84.25;101484.84;5060307;28;20075;-55
2022/01/10 07:17:08;;;;;;;82.43;38.45;;;;;;;-5.14;84.49;101482.22;5062286;28;20672;-53
2022/01/10 07:19:36;;;;;;;84.13;38.97;;;;;;;-5.16;83.96;101488.84;5048848;28;20468;-55
2022/01/10 07:22:04;;;;;;;84.32;37.88;;;;;;;-5.14;84.57;101499.03;5063218;28;20080;-51
2022/01/10 07:24:32;;;;;;;85.15;40.70;;;;;;;-5.15;83.74;101498.16;5054870;28;20053;-55
2022/01/10 07:26:59;;;;;;;76.40;35.22;;;;;;;-5.15;84.00;101500.69;5051529;28;20448;-55
2022/01/10 07:29:26;;;;;;;75.38;35.85;;;;;;;-5.12;84.52;101500.91;5060159;28;20063;-54
2022/01/10 07:31:55;;;;;;;78.80;36.13;;;;;;;-5.10;84.24;101509.47;5057608;28;21641;-55
2022/01/10 07:34:22;;;;;;;72.40;32.83;;;;;;;-5.09;84.50;101511.22;5054850;28;20056;-51
2022/01/10 07:36:49;;;;;;;71.43;32.53;;;;;;;-5.03;83.75;101519.97;5056199;28;20057;-52
2022/01/10 07:39:16;;;;;;;75.50;35.22;;;;;;;-5.01;84.15;101524.34;5052329;28;20404;-47
2022/01/10 07:41:43;;;;;;;80.82;36.67;;;;;;;-4.99;84.46;101524.47;5060063;28;20063;-49
2022/01/10 07:44:10;;;;;;;68.65;33.47;;;;;;;-4.96;84.58;101532.25;5058119;28;20060;-57
2022/01/10 07:46:38;;;;;;;63.90;31.85;;;;;;;-4.94;84.77;101538.28;5057609;28;20049;-56
2022/01/10 07:49:06;;;;;;;70.93;32.47;;;;;;;-4.93;84.57;101547.63;5059307;28;20090;-54
2022/01/10 07:51:33;;;;;;;74.55;36.10;;;;;;;-4.91;84.79;101541.91;5067729;28;20488;-58
2022/01/10 07:54:00;;;;;;;81.38;38.25;;;;;;;-4.86;84.72;101552.31;5064740;28;20057;-58
2022/01/10 07:56:28;;;;;;;79.72;36.30;;;;;;;-4.85;84.86;101556.59;5058566;28;20067;-56
2022/01/10 07:58:56;;;;;;;83.40;37.67;;;;;;;-4.82;85.10;101561.84;5062495;28;20145;-57
2022/01/10 08:01:23;;;;;;;88.13;38.35;;;;;;;-4.81;85.08;101561.06;5060178;28;20844;-56
2022/01/10 08:03:52;;;;;;;117.00;54.55;;;;;;;-4.79;85.42;101572.16;5054046;28;20484;-57
2022/01/10 08:06:22;;;;;;;89.90;41.13;;;;;;;-4.76;85.55;101577.44;5070824;28;20054;-57
2022/01/10 08:08:49;;;;;;;82.65;37.92;;;;;;;-4.74;85.29;101586.00;5078402;28;20057;-50
2022/01/10 08:11:16;;;;;;;78.15;36.47;;;;;;;-4.74;85.44;101580.94;5069566;28;20126;-46
2022/01/10 08:13:44;;;;;;;80.90;37.63;;;;;;;-4.70;85.44;101590.47;5067467;28;20044;-56
2022/01/10 08:16:11;;;;;;;78.88;36.28;;;;;;;-4.66;85.62;101589.06;5076886;28;20059;-52
2022/01/10 08:18:38;;;;;;;81.13;37.08;;;;;;;-4.62;85.51;101607.06;5074654;28;20052;-52
2022/01/10 08:21:06;;;;;;;80.40;36.60;;;;;;;-4.57;85.96;101605.72;5074266;28;20154;-52
2022/01/10 08:23:35;;;;;;;80.60;38.25;;;;;;;-4.54;86.30;101605.94;5060645;28;20198;-50
2022/01/10 08:26:03;;;;;;;84.28;38.83;;;;;;;-4.51;86.63;101615.38;5058018;28;21963;-51
2022/01/10 08:28:31;;;;;;;112.80;48.35;;;;;;;-4.49;86.37;101614.69;5054979;28;20783;-49
2022/01/10 08:30:58;;;;;;;104.18;44.70;;;;;;;-4.46;87.41;101617.44;5057208;28;20501;-49
2022/01/10 08:33:25;;;;;;;88.22;42.38;;;;;;;-4.41;87.80;101619.38;5059877;28;20508;-49
2022/01/10 08:35:52;;;;;;;97.25;41.85;;;;;;;-4.36;88.11;101630.69;5057859;28;20052;-48
2022/01/10 08:38:20;;;;;;;97.45;41.47;;;;;;;-4.32;88.01;101632.63;5060128;28;20468;-47
2022/01/10 08:40:49;;;;;;;89.20;39.63;;;;;;;-4.26;88.09;101638.09;5058136;28;20052;-47
2022/01/10 08:43:16;;;;;;;99.78;43.10;;;;;;;-4.21;88.19;101641.81;5061360;28;20119;-48
2022/01/10 08:45:44;;;;;;;104.50;42.20;;;;;;;-4.15;88.35;101647.28;5060146;28;20831;-49
2022/01/10 08:48:11;;;;;;;107.45;45.15;;;;;;;-4.09;88.44;101649.34;5061572;28;20129;-52
2022/01/10 08:50:39;;;;;;;112.97;44.78;;;;;;;-4.01;88.95;101646.53;5068172;28;20064;-47
2022/01/10 08:53:09;;;;;;;117.22;46.00;;;;;;;-3.91;89.28;101648.88;5064768;28;20409;-54
2022/01/10 08:55:36;;;;;;;114.97;44.15;;;;;;;-3.79;89.03;101652.97;5059782;28;20122;-54
2022/01/10 08:58:05;;;;;;;99.50;42.70;;;;;;;-3.72;89.14;101665.22;5060368;28;20057;-52
2022/01/10 09:00:32;;;;;;;142.07;51.25;;;;;;;-3.64;88.89;101669.13;5057621;28;20052;-54
2022/01/10 09:03:01;;;;;;;129.32;49.85;;;;;;;-3.55;88.77;101669.75;5058696;28;20071;-50
2022/01/10 09:05:29;;;;;;;115.63;45.38;;;;;;;-3.47;88.79;101673.63;5062578;28;20688;-50
2022/01/10 09:07:58;;;;;;;132.68;50.83;;;;;;;-3.37;88.92;101678.47;5060351;28;20079;-57
2022/01/10 09:10:26;;;;;;;118.97;49.90;;;;;;;-3.27;89.32;101682.47;5058613;28;20074;-57
2022/01/10 09:12:53;;;;;;;84.97;40.22;;;;;;;-3.20;89.19;101685.47;5061581;28;20055;-52
2022/01/10 09:15:22;;;;;;;107.97;44.78;;;;;;;-3.07;89.62;101696.41;5058066;28;20049;-56
2022/01/10 09:17:49;;;;;;;82.50;39.40;;;;;;;-2.99;89.39;101695.22;5057282;28;20064;-51
2022/01/10 09:20:17;;;;;;;92.95;44.35;;;;;;;-2.89;89.40;101702.59;5058703;28;20067;-58
2022/01/10 09:22:44;;;;;;;82.28;39.95;;;;;;;-2.79;89.71;101704.91;5059111;28;20060;-53
2022/01/10 09:25:11;;;;;;;65.53;32.40;;;;;;;-2.69;89.46;101712.28;5059093;28;20063;-51
2022/01/10 09:27:38;;;;;;;77.28;37.33;;;;;;;-2.58;89.76;101716.38;5069181;28;20155;-53
2022/01/10 09:30:06;;;;;;;81.25;37.22;;;;;;;-2.45;89.72;101717.97;5060259;28;20078;-50
2022/01/10 09:32:35;;;;;;;71.70;37.00;;;;;;;-2.31;89.76;101731.47;5059052;28;20449;-50
2022/01/10 09:35:02;;;;;;;70.75;36.90;;;;;;;-2.18;89.72;101736.50;5060884;28;20056;-53
2022/01/10 09:37:29;;;;;;;73.82;39.22;;;;;;;-2.05;89.63;101735.56;5058043;28;20059;-50
2022/01/10 09:39:56;;;;;;;67.75;34.13;;;;;;;-1.96;88.33;101742.06;5056374;28;20056;-53
2022/01/10 09:42:24;;;;;;;63.42;31.40;;;;;;;-1.84;88.06;101746.09;5054408;28;20056;-52
2022/01/10 09:44:52;;;;;;;67.78;33.05;;;;;;;-1.73;87.06;101751.00;5057904;28;20482;-50
2022/01/10 09:47:19;;;;;;;81.00;35.42;;;;;;;-1.65;85.29;101761.59;5058093;28;20060;-52
2022/01/10 09:49:48;;;;;;;70.90;35.58;;;;;;;-1.58;84.77;101753.53;5061611;28;20118;-50
2022/01/10 09:52:16;;;;;;;75.07;34.97;;;;;;;-1.56;83.12;101764.69;5056772;28;20059;-51
2022/01/10 09:54:43;;;;;;;60.00;29.33;;;;;;;-1.52;81.83;101775.91;5058353;28;20048;-55
2022/01/10 09:57:10;;;;;;;59.40;28.95;;;;;;;-1.50;80.90;101784.50;5057292;28;20064;-55
2022/01/10 09:59:40;;;;;;;53.35;28.02;;;;;;;-1.48;80.93;101788.88;5057345;28;20057;-52
2022/01/10 10:02:08;;;;;;;57.53;28.67;;;;;;;-1.44;80.57;101788.28;5057741;28;20459;-53
2022/01/10 10:04:37;;;;;;;56.50;27.40;;;;;;;-1.42;80.00;101789.22;5057749;28;20048;-54
2022/01/10 10:07:06;;;;;;;55.08;28.42;;;;;;;-1.37;80.37;101792.03;5060210;28;20075;-58
2022/01/10 10:09:35;;;;;;;58.17;29.65;;;;;;;-1.32;80.57;101801.69;5061186;28;20052;-52
2022/01/10 10:12:04;;;;;;;61.58;29.15;;;;;;;-1.28;79.87;101805.28;5057880;28;20539;-51
2022/01/10 10:14:32;;;;;;;51.03;26.63;;;;;;;-1.22;79.82;101809.81;5058832;28;20041;-47
2022/01/10 10:17:07;;;;;;;55.78;28.13;;;;;;;-1.17;79.56;101808.41;5056668;28;20059;-51
2022/01/10 10:19:35;;;;;;;55.63;26.47;;;;;;;-1.11;79.77;101817.25;5058711;28;20040;-51
2022/01/10 10:22:02;;;;;;;57.88;29.95;;;;;;;-1.02;79.87;101816.94;5064098;28;20049;-50
2022/01/10 10:24:30;;;;;;;49.65;25.35;;;;;;;-0.94;78.69;101825.84;5056165;28;20143;-50
2022/01/10 10:26:58;;;;;;;46.65;23.95;;;;;;;-0.89;78.46;101824.44;5057363;28;20059;-48
2022/01/10 10:29:26;;;;;;;47.38;23.58;;;;;;;-0.81;78.93;101828.28;5058586;28;21084;-47
2022/01/10 10:31:55;;;;;;;49.20;23.50;;;;;;;-0.72;77.84;101838.97;5056438;28;20045;-49
2022/01/10 10:34:24;;;;;;;44.53;24.13;;;;;;;-0.64;77.53;101830.06;5060531;28;20652;-47
2022/01/10 10:37:03;;;;;;;42.63;21.55;;;;;;;-0.55;77.57;101844.09;5056773;28;20071;-47
2022/01/10 10:39:33;;;;;;;42.92;22.30;;;;;;;-0.45;77.18;101854.88;5056325;28;20052;-53
2022/01/10 10:42:03;;;;;;;43.00;23.02;;;;;;;-0.35;76.77;101848.59;5060624;28;20419;-53
2022/01/10 10:44:31;;;;;;;43.45;22.35;;;;;;;-0.30;76.10;101854.81;5061915;28;20135;-50
2022/01/10 10:46:59;;;;;;;44.58;22.88;;;;;;;-0.23;76.37;101856.91;5055459;28;20053;-51
2022/01/10 10:49:31;;;;;;;44.67;21.73;;;;;;;-0.17;75.39;101859.75;5054522;28;20056;-48
2022/01/10 10:52:00;;;;;;;37.85;20.52;;;;;;;-0.11;75.59;101860.09;5055811;28;20152;-50
2022/01/10 10:54:28;;;;;;;39.47;20.13;;;;;;;-0.04;74.79;101859.59;5056080;28;20599;-54
2022/01/10 10:56:57;;;;;;;36.72;18.65;;;;;;;0.04;74.79;101871.91;5055975;28;20055;-49
2022/01/10 10:59:29;;;;;;;34.33;18.63;;;;;;;0.11;73.77;101868.88;5059443;28;20071;-51
2022/01/10 11:01:56;;;;;;;31.10;17.27;;;;;;;0.17;73.15;101869.19;5055932;28;20048;-49
2022/01/10 11:04:24;;;;;;;29.20;15.63;;;;;;;0.21;71.75;101873.66;5056653;28;20041;-48
2022/01/10 11:06:52;;;;;;;33.35;17.17;;;;;;;0.25;71.98;101878.09;5056034;28;20048;-53
2022/01/10 11:09:19;;;;;;;31.38;15.98;;;;;;;0.31;72.70;101878.41;5055007;28;20916;-51
2022/01/10 11:11:47;;;;;;;29.27;16.05;;;;;;;0.39;71.95;101877.13;5055788;28;20129;-49
2022/01/10 11:14:17;;;;;;;35.03;17.10;;;;;;;0.45;71.13;101877.44;5052534;28;20052;-47
2022/01/10 11:16:46;;;;;;;33.03;16.55;;;;;;;0.49;70.76;101884.44;5044920;28;20063;-48
2022/01/10 11:19:15;;;;;;;34.53;17.30;;;;;;;0.56;71.63;101891.63;5059321;28;20643;-48
2022/01/10 11:21:46;;;;;;;36.47;18.05;;;;;;;0.62;71.39;101894.50;5054603;28;20071;-48